sensor_id;sensor_type;location;lat;lon;timestamp;temperature;humidity
13205;DHT22;6667;52.634;9.226;2024-01-30T00:00:46;2.10;99.90
13205;DHT22;6667;52.634;9.226;2024-01-30T00:03:13;2.10;99.90
13205;DHT22;6667;52.634;9.226;2024-01-30T00:05:41;2.10;99.90
13205;DHT22;6667;52.634;9.226;2024-01-30T00:08:09;2.10;99.90
13205;DHT22;6667;52.634;9.226;2024-01-30T00:10:36;2.00;99.90
13205;DHT22;6667;52.634;9.226;2024-01-30T00:13:03;2.00;99.90
13205;DHT22;6667;52.634;9.226;2024-01-30T00:15:30;2.00;99.90
13205;DHT22;6667;52.634;9.226;2024-01-30T00:17:56;2.00;99.90
13205;DHT22;6667;52.634;9.226;2024-01-30T00:20:23;2.00;99.90
13205;DHT22;6667;52.634;9.226;2024-01-30T00:22:51;2.00;99.90
13205;DHT22;6667;52.634;9.226;2024-01-30T00:25:17;2.00;99.90
13205;DHT22;6667;52.634;9.226;2024-01-30T00:27:44;1.90;99.90
13205;DHT22;6667;52.634;9.226;2024-01-30T00:30:12;1.90;99.90
13205;DHT22;6667;52.634;9.226;2024-01-30T00:32:39;1.90;99.90
13205;DHT22;6667;52.634;9.226;2024-01-30T00:35:06;1.80;99.90
13205;DHT22;6667;52.634;9.226;2024-01-30T00:37:32;1.80;99.90
13205;DHT22;6667;52.634;9.226;2024-01-30T00:40:00;1.80;99.90
13205;DHT22;6667;52.634;9.226;2024-01-30T00:42:27;1.80;99.90
13205;DHT22;6667;52.634;9.226;2024-01-30T00:44:53;1.80;99.90
13205;DHT22;6667;52.634;9.226;2024-01-30T00:47:20;1.80;99.90
13205;DHT22;6667;52.634;9.226;2024-01-30T00:49:47;1.80;99.90
13205;DHT22;6667;52.634;9.226;2024-01-30T00:52:13;1.80;99.90
13205;DHT22;6667;52.634;9.226;2024-01-30T00:54:41;1.70;99.90
13205;DHT22;6667;52.634;9.226;2024-01-30T00:57:09;1.70;99.90
13205;DHT22;6667;52.634;9.226;2024-01-30T00:59:36;1.70;99.90
13205;DHT22;6667;52.634;9.226;2024-01-30T01:02:03;1.80;99.90
13205;DHT22;6667;52.634;9.226;2024-01-30T01:04:29;1.70;99.90
13205;DHT22;6667;52.634;9.226;2024-01-30T01:06:56;1.70;99.90
13205;DHT22;6667;52.634;9.226;2024-01-30T01:09:23;1.80;99.90
13205;DHT22;6667;52.634;9.226;2024-01-30T01:11:49;1.70;99.90
13205;DHT22;6667;52.634;9.226;2024-01-30T01:14:17;1.70;99.90
13205;DHT22;6667;52.634;9.226;2024-01-30T01:16:44;1.70;99.90
13205;DHT22;6667;52.634;9.226;2024-01-30T01:19:10;1.70;99.90
13205;DHT22;6667;52.634;9.226;2024-01-30T01:21:37;1.70;99.90
13205;DHT22;6667;52.634;9.226;2024-01-30T01:24:04;1.70;99.90
13205;DHT22;6667;52.634;9.226;2024-01-30T01:26:31;1.70;99.90
13205;DHT22;6667;52.634;9.226;2024-01-30T01:28:58;1.70;99.90
13205;DHT22;6667;52.634;9.226;2024-01-30T01:31:26;1.70;99.90
13205;DHT22;6667;52.634;9.226;2024-01-30T01:33:55;1.70;99.90
13205;DHT22;6667;52.634;9.226;2024-01-30T01:36:21;1.70;99.90
13205;DHT22;6667;52.634;9.226;2024-01-30T01:38:49;1.70;99.90
13205;DHT22;6667;52.634;9.226;2024-01-30T01:41:15;1.70;99.90
13205;DHT22;6667;52.634;9.226;2024-01-30T01:43:42;1.70;99.90
13205;DHT22;6667;52.634;9.226;2024-01-30T01:46:09;1.70;99.90
13205;DHT22;6667;52.634;9.226;2024-01-30T01:48:37;1.70;99.90
13205;DHT22;6667;52.634;9.226;2024-01-30T01:51:05;1.70;99.90
13205;DHT22;6667;52.634;9.226;2024-01-30T01:53:32;1.70;99.90
13205;DHT22;6667;52.634;9.226;2024-01-30T01:55:59;1.70;99.90
13205;DHT22;6667;52.634;9.226;2024-01-30T01:58:27;1.70;99.90
13205;DHT22;6667;52.634;9.226;2024-01-30T02:00:56;1.70;99.90
13205;DHT22;6667;52.634;9.226;2024-01-30T02:03:23;1.70;99.90
13205;DHT22;6667;52.634;9.226;2024-01-30T02:05:51;1.70;99.90
13205;DHT22;6667;52.634;9.226;2024-01-30T02:08:18;1.70;99.90
13205;DHT22;6667;52.634;9.226;2024-01-30T02:10:45;1.70;99.90
13205;DHT22;6667;52.634;9.226;2024-01-30T02:13:11;1.70;99.90
13205;DHT22;6667;52.634;9.226;2024-01-30T02:15:38;1.70;99.90
13205;DHT22;6667;52.634;9.226;2024-01-30T02:18:05;1.70;99.90
13205;DHT22;6667;52.634;9.226;2024-01-30T02:20:31;1.70;99.90
13205;DHT22;6667;52.634;9.226;2024-01-30T02:23:02;1.70;99.90
13205;DHT22;6667;52.634;9.226;2024-01-30T02:25:33;1.70;99.90
13205;DHT22;6667;52.634;9.226;2024-01-30T02:28:00;1.70;99.90
13205;DHT22;6667;52.634;9.226;2024-01-30T02:30:26;1.70;99.90
13205;DHT22;6667;52.634;9.226;2024-01-30T02:32:53;1.70;99.90
13205;DHT22;6667;52.634;9.226;2024-01-30T02:35:19;1.70;99.90
13205;DHT22;6667;52.634;9.226;2024-01-30T02:37:46;1.70;99.90
13205;DHT22;6667;52.634;9.226;2024-01-30T02:40:14;1.70;99.90
13205;DHT22;6667;52.634;9.226;2024-01-30T02:42:41;1.70;99.90
13205;DHT22;6667;52.634;9.226;2024-01-30T02:45:09;1.70;99.90
13205;DHT22;6667;52.634;9.226;2024-01-30T02:47:36;1.60;99.90
13205;DHT22;6667;52.634;9.226;2024-01-30T02:50:03;1.70;99.90
13205;DHT22;6667;52.634;9.226;2024-01-30T02:52:29;1.60;99.90
13205;DHT22;6667;52.634;9.226;2024-01-30T02:54:56;1.60;99.90
13205;DHT22;6667;52.634;9.226;2024-01-30T02:57:24;1.60;99.90
13205;DHT22;6667;52.634;9.226;2024-01-30T02:59:51;1.60;99.90
13205;DHT22;6667;52.634;9.226;2024-01-30T03:02:17;1.60;99.90
13205;DHT22;6667;52.634;9.226;2024-01-30T03:04:44;1.60;99.90
13205;DHT22;6667;52.634;9.226;2024-01-30T03:07:10;1.60;99.90
13205;DHT22;6667;52.634;9.226;2024-01-30T03:09:37;1.50;99.90
13205;DHT22;6667;52.634;9.226;2024-01-30T03:12:05;1.50;99.90
13205;DHT22;6667;52.634;9.226;2024-01-30T03:14:33;1.60;99.90
13205;DHT22;6667;52.634;9.226;2024-01-30T03:16:59;1.50;99.90
13205;DHT22;6667;52.634;9.226;2024-01-30T03:19:26;1.50;99.90
13205;DHT22;6667;52.634;9.226;2024-01-30T03:21:53;1.50;99.90
13205;DHT22;6667;52.634;9.226;2024-01-30T03:24:19;1.50;99.90
13205;DHT22;6667;52.634;9.226;2024-01-30T03:26:46;1.50;99.90
13205;DHT22;6667;52.634;9.226;2024-01-30T03:29:13;1.50;99.90
13205;DHT22;6667;52.634;9.226;2024-01-30T03:31:40;1.50;99.90
13205;DHT22;6667;52.634;9.226;2024-01-30T03:34:07;1.50;99.90
13205;DHT22;6667;52.634;9.226;2024-01-30T03:36:34;1.40;99.90
13205;DHT22;6667;52.634;9.226;2024-01-30T03:39:00;1.40;99.90
13205;DHT22;6667;52.634;9.226;2024-01-30T03:41:28;1.50;99.90
13205;DHT22;6667;52.634;9.226;2024-01-30T03:43:54;1.40;99.90
13205;DHT22;6667;52.634;9.226;2024-01-30T03:46:21;1.40;99.90
13205;DHT22;6667;52.634;9.226;2024-01-30T03:48:49;1.40;99.90
13205;DHT22;6667;52.634;9.226;2024-01-30T03:51:15;1.40;99.90
13205;DHT22;6667;52.634;9.226;2024-01-30T03:53:42;1.40;99.90
13205;DHT22;6667;52.634;9.226;2024-01-30T03:56:09;1.40;99.90
13205;DHT22;6667;52.634;9.226;2024-01-30T03:58:36;1.40;99.90
13205;DHT22;6667;52.634;9.226;2024-01-30T04:01:02;1.30;99.90
13205;DHT22;6667;52.634;9.226;2024-01-30T04:03:29;1.30;99.90
13205;DHT22;6667;52.634;9.226;2024-01-30T04:05:57;1.30;99.90
13205;DHT22;6667;52.634;9.226;2024-01-30T04:08:23;1.30;99.90
13205;DHT22;6667;52.634;9.226;2024-01-30T04:10:50;1.30;99.90
13205;DHT22;6667;52.634;9.226;2024-01-30T04:13:17;1.30;99.90
13205;DHT22;6667;52.634;9.226;2024-01-30T04:15:43;1.30;99.90
13205;DHT22;6667;52.634;9.226;2024-01-30T04:18:10;1.40;99.90
13205;DHT22;6667;52.634;9.226;2024-01-30T04:20:36;1.30;99.90
13205;DHT22;6667;52.634;9.226;2024-01-30T04:23:04;1.30;99.90
13205;DHT22;6667;52.634;9.226;2024-01-30T04:25:31;1.20;99.90
13205;DHT22;6667;52.634;9.226;2024-01-30T04:27:58;1.20;99.90
13205;DHT22;6667;52.634;9.226;2024-01-30T04:30:24;1.20;99.90
13205;DHT22;6667;52.634;9.226;2024-01-30T04:32:51;1.20;99.90
13205;DHT22;6667;52.634;9.226;2024-01-30T04:35:17;1.30;99.90
13205;DHT22;6667;52.634;9.226;2024-01-30T04:37:46;1.30;99.90
13205;DHT22;6667;52.634;9.226;2024-01-30T04:40:14;1.20;99.90
13205;DHT22;6667;52.634;9.226;2024-01-30T04:42:40;1.20;99.90
13205;DHT22;6667;52.634;9.226;2024-01-30T04:45:07;1.30;99.90
13205;DHT22;6667;52.634;9.226;2024-01-30T04:47:34;1.20;99.90
13205;DHT22;6667;52.634;9.226;2024-01-30T04:50:01;1.20;99.90
13205;DHT22;6667;52.634;9.226;2024-01-30T04:52:30;1.20;99.90
13205;DHT22;6667;52.634;9.226;2024-01-30T04:54:57;1.20;99.90
13205;DHT22;6667;52.634;9.226;2024-01-30T04:57:24;1.20;99.90
13205;DHT22;6667;52.634;9.226;2024-01-30T04:59:51;1.20;99.90
13205;DHT22;6667;52.634;9.226;2024-01-30T05:02:18;1.20;99.90
13205;DHT22;6667;52.634;9.226;2024-01-30T05:04:44;1.20;99.90
13205;DHT22;6667;52.634;9.226;2024-01-30T05:07:11;1.30;99.90
13205;DHT22;6667;52.634;9.226;2024-01-30T05:09:38;1.30;99.90
13205;DHT22;6667;52.634;9.226;2024-01-30T05:12:04;1.20;99.90
13205;DHT22;6667;52.634;9.226;2024-01-30T05:14:32;1.20;99.90
13205;DHT22;6667;52.634;9.226;2024-01-30T05:16:59;1.40;99.90
13205;DHT22;6667;52.634;9.226;2024-01-30T05:19:26;1.30;99.90
13205;DHT22;6667;52.634;9.226;2024-01-30T05:21:52;1.30;99.90
13205;DHT22;6667;52.634;9.226;2024-01-30T05:24:19;1.30;99.90
13205;DHT22;6667;52.634;9.226;2024-01-30T05:26:45;1.20;99.90
13205;DHT22;6667;52.634;9.226;2024-01-30T05:29:13;1.20;99.90
13205;DHT22;6667;52.634;9.226;2024-01-30T05:31:41;1.20;99.90
13205;DHT22;6667;52.634;9.226;2024-01-30T05:34:08;1.20;99.90
13205;DHT22;6667;52.634;9.226;2024-01-30T05:36:34;1.30;99.90
13205;DHT22;6667;52.634;9.226;2024-01-30T05:39:01;1.30;99.90
13205;DHT22;6667;52.634;9.226;2024-01-30T05:41:28;1.30;99.90
13205;DHT22;6667;52.634;9.226;2024-01-30T05:43:54;1.40;99.90
13205;DHT22;6667;52.634;9.226;2024-01-30T05:46:21;1.30;99.90
13205;DHT22;6667;52.634;9.226;2024-01-30T05:48:49;1.30;99.90
13205;DHT22;6667;52.634;9.226;2024-01-30T05:51:15;1.40;99.90
13205;DHT22;6667;52.634;9.226;2024-01-30T05:53:42;1.50;99.90
13205;DHT22;6667;52.634;9.226;2024-01-30T05:56:09;1.60;99.90
13205;DHT22;6667;52.634;9.226;2024-01-30T05:58:35;1.60;99.90
13205;DHT22;6667;52.634;9.226;2024-01-30T06:03:32;1.50;99.90
13205;DHT22;6667;52.634;9.226;2024-01-30T06:06:00;1.60;99.90
13205;DHT22;6667;52.634;9.226;2024-01-30T06:08:27;1.80;99.90
13205;DHT22;6667;52.634;9.226;2024-01-30T06:10:54;1.80;99.90
13205;DHT22;6667;52.634;9.226;2024-01-30T06:13:19;1.90;99.90
13205;DHT22;6667;52.634;9.226;2024-01-30T06:15:46;1.80;99.90
13205;DHT22;6667;52.634;9.226;2024-01-30T06:18:13;1.70;99.90
13205;DHT22;6667;52.634;9.226;2024-01-30T06:20:39;1.70;99.90
13205;DHT22;6667;52.634;9.226;2024-01-30T06:23:07;1.80;99.90
13205;DHT22;6667;52.634;9.226;2024-01-30T06:25:34;1.80;99.90
13205;DHT22;6667;52.634;9.226;2024-01-30T06:28:01;1.80;99.90
13205;DHT22;6667;52.634;9.226;2024-01-30T06:30:27;1.90;99.90
13205;DHT22;6667;52.634;9.226;2024-01-30T06:32:54;1.90;99.90
13205;DHT22;6667;52.634;9.226;2024-01-30T06:35:20;1.90;99.90
13205;DHT22;6667;52.634;9.226;2024-01-30T06:37:47;1.90;99.90
13205;DHT22;6667;52.634;9.226;2024-01-30T06:40:15;1.90;99.90
13205;DHT22;6667;52.634;9.226;2024-01-30T06:42:42;1.90;99.90
13205;DHT22;6667;52.634;9.226;2024-01-30T06:45:09;1.90;99.90
13205;DHT22;6667;52.634;9.226;2024-01-30T06:47:36;1.90;99.90
13205;DHT22;6667;52.634;9.226;2024-01-30T06:50:03;2.00;99.90
13205;DHT22;6667;52.634;9.226;2024-01-30T06:52:29;2.10;99.90
13205;DHT22;6667;52.634;9.226;2024-01-30T06:54:56;2.10;99.90
13205;DHT22;6667;52.634;9.226;2024-01-30T06:57:24;2.10;99.90
13205;DHT22;6667;52.634;9.226;2024-01-30T06:59:53;2.10;99.90
13205;DHT22;6667;52.634;9.226;2024-01-30T07:02:20;2.00;99.90
13205;DHT22;6667;52.634;9.226;2024-01-30T07:04:46;2.10;99.90
13205;DHT22;6667;52.634;9.226;2024-01-30T07:07:13;2.10;99.90
13205;DHT22;6667;52.634;9.226;2024-01-30T07:09:40;2.20;99.90
13205;DHT22;6667;52.634;9.226;2024-01-30T07:12:07;2.40;99.90
13205;DHT22;6667;52.634;9.226;2024-01-30T07:14:35;2.40;99.90
13205;DHT22;6667;52.634;9.226;2024-01-30T07:17:02;2.30;99.90
13205;DHT22;6667;52.634;9.226;2024-01-30T07:19:28;2.40;99.90
13205;DHT22;6667;52.634;9.226;2024-01-30T07:21:55;2.60;99.90
13205;DHT22;6667;52.634;9.226;2024-01-30T07:24:22;2.60;99.90
13205;DHT22;6667;52.634;9.226;2024-01-30T07:26:48;2.70;99.90
13205;DHT22;6667;52.634;9.226;2024-01-30T07:29:15;2.90;99.90
13205;DHT22;6667;52.634;9.226;2024-01-30T07:31:43;3.00;99.90
13205;DHT22;6667;52.634;9.226;2024-01-30T07:34:09;3.00;99.90
13205;DHT22;6667;52.634;9.226;2024-01-30T07:36:36;2.90;99.90
13205;DHT22;6667;52.634;9.226;2024-01-30T07:39:03;3.00;99.90
13205;DHT22;6667;52.634;9.226;2024-01-30T07:41:30;3.00;99.90
13205;DHT22;6667;52.634;9.226;2024-01-30T07:43:57;2.80;99.90
13205;DHT22;6667;52.634;9.226;2024-01-30T07:46:23;3.20;99.90
13205;DHT22;6667;52.634;9.226;2024-01-30T07:48:51;3.50;99.90
13205;DHT22;6667;52.634;9.226;2024-01-30T07:51:18;3.60;99.90
13205;DHT22;6667;52.634;9.226;2024-01-30T07:53:45;3.70;99.90
13205;DHT22;6667;52.634;9.226;2024-01-30T07:56:12;3.60;99.90
13205;DHT22;6667;52.634;9.226;2024-01-30T07:58:39;3.50;99.90
13205;DHT22;6667;52.634;9.226;2024-01-30T08:01:05;3.50;99.90
13205;DHT22;6667;52.634;9.226;2024-01-30T08:03:32;3.40;99.90
13205;DHT22;6667;52.634;9.226;2024-01-30T08:06:01;3.40;99.90
13205;DHT22;6667;52.634;9.226;2024-01-30T08:08:27;3.40;99.90
13205;DHT22;6667;52.634;9.226;2024-01-30T08:10:54;3.50;99.90
13205;DHT22;6667;52.634;9.226;2024-01-30T08:13:20;3.60;99.90
13205;DHT22;6667;52.634;9.226;2024-01-30T08:15:47;3.70;99.90
13205;DHT22;6667;52.634;9.226;2024-01-30T08:18:14;3.80;99.90
13205;DHT22;6667;52.634;9.226;2024-01-30T08:20:40;3.90;99.90
13205;DHT22;6667;52.634;9.226;2024-01-30T08:23:08;3.90;99.90
13205;DHT22;6667;52.634;9.226;2024-01-30T08:25:36;3.90;99.90
13205;DHT22;6667;52.634;9.226;2024-01-30T08:28:03;3.90;99.90
13205;DHT22;6667;52.634;9.226;2024-01-30T08:30:30;3.90;99.90
13205;DHT22;6667;52.634;9.226;2024-01-30T08:32:57;4.00;99.90
13205;DHT22;6667;52.634;9.226;2024-01-30T08:35:23;4.10;99.90
13205;DHT22;6667;52.634;9.226;2024-01-30T08:37:50;4.20;99.90
13205;DHT22;6667;52.634;9.226;2024-01-30T08:40:18;4.30;99.90
13205;DHT22;6667;52.634;9.226;2024-01-30T08:42:44;4.30;99.90
13205;DHT22;6667;52.634;9.226;2024-01-30T08:45:11;4.40;99.90
13205;DHT22;6667;52.634;9.226;2024-01-30T08:47:38;4.50;99.90
13205;DHT22;6667;52.634;9.226;2024-01-30T08:50:05;4.60;99.90
13205;DHT22;6667;52.634;9.226;2024-01-30T08:52:32;4.70;99.90
13205;DHT22;6667;52.634;9.226;2024-01-30T08:54:59;4.70;99.90
13205;DHT22;6667;52.634;9.226;2024-01-30T08:57:27;4.80;99.90
13205;DHT22;6667;52.634;9.226;2024-01-30T08:59:54;4.90;99.90
13205;DHT22;6667;52.634;9.226;2024-01-30T09:02:21;5.00;99.90
13205;DHT22;6667;52.634;9.226;2024-01-30T09:04:48;5.10;99.90
13205;DHT22;6667;52.634;9.226;2024-01-30T09:07:14;5.20;99.90
13205;DHT22;6667;52.634;9.226;2024-01-30T09:09:41;5.30;99.90
13205;DHT22;6667;52.634;9.226;2024-01-30T09:12:08;5.40;99.90
13205;DHT22;6667;52.634;9.226;2024-01-30T09:14:39;5.50;99.90
13205;DHT22;6667;52.634;9.226;2024-01-30T09:17:05;5.60;99.90
13205;DHT22;6667;52.634;9.226;2024-01-30T09:19:32;5.60;99.90
13205;DHT22;6667;52.634;9.226;2024-01-30T09:21:59;5.70;99.90
13205;DHT22;6667;52.634;9.226;2024-01-30T09:24:26;5.80;99.90
13205;DHT22;6667;52.634;9.226;2024-01-30T09:26:53;5.90;99.90
13205;DHT22;6667;52.634;9.226;2024-01-30T09:29:19;6.00;99.90
13205;DHT22;6667;52.634;9.226;2024-01-30T09:31:47;6.10;99.90
13205;DHT22;6667;52.634;9.226;2024-01-30T09:34:14;6.20;99.90
13205;DHT22;6667;52.634;9.226;2024-01-30T09:36:41;6.30;99.90
13205;DHT22;6667;52.634;9.226;2024-01-30T09:39:07;6.40;99.90
13205;DHT22;6667;52.634;9.226;2024-01-30T09:41:36;6.50;99.90
13205;DHT22;6667;52.634;9.226;2024-01-30T09:44:09;6.70;99.90
13205;DHT22;6667;52.634;9.226;2024-01-30T09:46:37;6.80;99.90
13205;DHT22;6667;52.634;9.226;2024-01-30T09:49:06;7.00;99.90
13205;DHT22;6667;52.634;9.226;2024-01-30T09:51:34;7.10;99.90
13205;DHT22;6667;52.634;9.226;2024-01-30T09:54:02;7.20;99.90
13205;DHT22;6667;52.634;9.226;2024-01-30T09:56:29;7.30;99.90
13205;DHT22;6667;52.634;9.226;2024-01-30T09:58:56;7.30;99.90
13205;DHT22;6667;52.634;9.226;2024-01-30T10:01:22;7.40;99.90
13205;DHT22;6667;52.634;9.226;2024-01-30T10:03:50;7.50;99.90
13205;DHT22;6667;52.634;9.226;2024-01-30T10:06:20;7.60;99.90
13205;DHT22;6667;52.634;9.226;2024-01-30T10:08:47;7.60;99.90
13205;DHT22;6667;52.634;9.226;2024-01-30T10:11:14;7.70;99.90
13205;DHT22;6667;52.634;9.226;2024-01-30T10:13:41;7.70;99.90
13205;DHT22;6667;52.634;9.226;2024-01-30T10:16:07;7.80;99.90
13205;DHT22;6667;52.634;9.226;2024-01-30T10:18:34;7.80;99.90
13205;DHT22;6667;52.634;9.226;2024-01-30T10:21:01;7.90;99.90
13205;DHT22;6667;52.634;9.226;2024-01-30T10:23:29;7.90;99.90
13205;DHT22;6667;52.634;9.226;2024-01-30T10:25:57;8.00;99.90
13205;DHT22;6667;52.634;9.226;2024-01-30T10:28:26;8.10;99.90
13205;DHT22;6667;52.634;9.226;2024-01-30T10:30:58;8.20;99.90
13205;DHT22;6667;52.634;9.226;2024-01-30T10:33:25;8.20;99.90
13205;DHT22;6667;52.634;9.226;2024-01-30T10:35:53;8.30;99.90
13205;DHT22;6667;52.634;9.226;2024-01-30T10:38:21;8.40;99.90
13205;DHT22;6667;52.634;9.226;2024-01-30T10:40:54;8.40;99.90
13205;DHT22;6667;52.634;9.226;2024-01-30T10:43:22;8.40;99.90
13205;DHT22;6667;52.634;9.226;2024-01-30T10:45:53;8.50;99.90
13205;DHT22;6667;52.634;9.226;2024-01-30T10:48:26;8.50;99.90
13205;DHT22;6667;52.634;9.226;2024-01-30T10:50:57;8.60;99.90
13205;DHT22;6667;52.634;9.226;2024-01-30T10:53:26;8.60;99.90
13205;DHT22;6667;52.634;9.226;2024-01-30T10:55:55;8.70;99.90
13205;DHT22;6667;52.634;9.226;2024-01-30T10:58:23;8.70;99.90
13205;DHT22;6667;52.634;9.226;2024-01-30T11:00:50;8.80;99.90
13205;DHT22;6667;52.634;9.226;2024-01-30T11:03:17;8.90;99.90
13205;DHT22;6667;52.634;9.226;2024-01-30T11:05:49;8.90;99.90
13205;DHT22;6667;52.634;9.226;2024-01-30T11:08:22;9.00;99.90
13205;DHT22;6667;52.634;9.226;2024-01-30T11:10:56;9.20;99.90
13205;DHT22;6667;52.634;9.226;2024-01-30T11:13:27;9.40;99.90
13205;DHT22;6667;52.634;9.226;2024-01-30T11:15:54;9.60;99.90
13205;DHT22;6667;52.634;9.226;2024-01-30T11:18:24;9.80;99.90
13205;DHT22;6667;52.634;9.226;2024-01-30T11:20:51;9.90;99.90
13205;DHT22;6667;52.634;9.226;2024-01-30T11:23:18;10.00;99.90
13205;DHT22;6667;52.634;9.226;2024-01-30T11:25:48;10.10;99.90
13205;DHT22;6667;52.634;9.226;2024-01-30T11:28:16;10.20;99.90
13205;DHT22;6667;52.634;9.226;2024-01-30T11:30:44;10.30;99.90
13205;DHT22;6667;52.634;9.226;2024-01-30T11:33:13;10.50;99.90
13205;DHT22;6667;52.634;9.226;2024-01-30T11:35:41;10.60;99.90
13205;DHT22;6667;52.634;9.226;2024-01-30T11:38:09;10.70;99.90
13205;DHT22;6667;52.634;9.226;2024-01-30T11:40:37;10.80;99.90
13205;DHT22;6667;52.634;9.226;2024-01-30T11:43:05;10.80;99.90
13205;DHT22;6667;52.634;9.226;2024-01-30T11:45:35;11.00;99.90
13205;DHT22;6667;52.634;9.226;2024-01-30T11:48:02;11.10;99.90
13205;DHT22;6667;52.634;9.226;2024-01-30T11:50:29;11.20;99.90
13205;DHT22;6667;52.634;9.226;2024-01-30T11:52:56;11.40;99.90
13205;DHT22;6667;52.634;9.226;2024-01-30T11:55:23;11.60;99.90
13205;DHT22;6667;52.634;9.226;2024-01-30T11:57:50;11.80;99.90
13205;DHT22;6667;52.634;9.226;2024-01-30T12:00:18;11.80;99.90
13205;DHT22;6667;52.634;9.226;2024-01-30T12:02:50;11.70;99.90
13205;DHT22;6667;52.634;9.226;2024-01-30T12:05:21;11.60;99.90
13205;DHT22;6667;52.634;9.226;2024-01-30T12:07:48;11.50;99.90
13205;DHT22;6667;52.634;9.226;2024-01-30T12:10:15;11.50;99.90
13205;DHT22;6667;52.634;9.226;2024-01-30T12:12:44;11.50;99.90
13205;DHT22;6667;52.634;9.226;2024-01-30T12:15:12;11.50;99.90
13205;DHT22;6667;52.634;9.226;2024-01-30T12:17:38;11.40;99.90
13205;DHT22;6667;52.634;9.226;2024-01-30T12:20:08;11.40;99.90
13205;DHT22;6667;52.634;9.226;2024-01-30T12:22:39;11.40;99.90
13205;DHT22;6667;52.634;9.226;2024-01-30T12:25:08;11.40;99.90
13205;DHT22;6667;52.634;9.226;2024-01-30T12:27:35;11.30;99.90
13205;DHT22;6667;52.634;9.226;2024-01-30T12:30:05;11.40;99.90
13205;DHT22;6667;52.634;9.226;2024-01-30T12:32:34;11.30;99.90
13205;DHT22;6667;52.634;9.226;2024-01-30T12:35:01;11.30;99.90
13205;DHT22;6667;52.634;9.226;2024-01-30T12:37:29;11.30;99.90
13205;DHT22;6667;52.634;9.226;2024-01-30T12:39:56;11.20;99.90
13205;DHT22;6667;52.634;9.226;2024-01-30T12:42:23;11.30;99.90
13205;DHT22;6667;52.634;9.226;2024-01-30T12:44:50;11.20;99.90
13205;DHT22;6667;52.634;9.226;2024-01-30T12:47:16;11.20;99.90
13205;DHT22;6667;52.634;9.226;2024-01-30T12:49:43;11.30;99.90
13205;DHT22;6667;52.634;9.226;2024-01-30T12:52:10;11.30;99.90
13205;DHT22;6667;52.634;9.226;2024-01-30T12:54:38;11.30;99.90
13205;DHT22;6667;52.634;9.226;2024-01-30T12:57:05;11.30;99.90
13205;DHT22;6667;52.634;9.226;2024-01-30T12:59:32;11.30;99.90
13205;DHT22;6667;52.634;9.226;2024-01-30T13:02:00;11.30;99.90
13205;DHT22;6667;52.634;9.226;2024-01-30T13:04:27;11.30;99.90
13205;DHT22;6667;52.634;9.226;2024-01-30T13:06:54;11.40;99.90
13205;DHT22;6667;52.634;9.226;2024-01-30T13:09:21;11.40;99.90
13205;DHT22;6667;52.634;9.226;2024-01-30T13:11:49;11.40;99.90
13205;DHT22;6667;52.634;9.226;2024-01-30T13:14:16;11.40;99.90
13205;DHT22;6667;52.634;9.226;2024-01-30T13:16:43;11.40;99.90
13205;DHT22;6667;52.634;9.226;2024-01-30T13:19:09;11.40;99.90
13205;DHT22;6667;52.634;9.226;2024-01-30T13:21:36;11.40;99.90
13205;DHT22;6667;52.634;9.226;2024-01-30T13:24:04;11.40;99.90
13205;DHT22;6667;52.634;9.226;2024-01-30T13:26:32;11.30;99.90
13205;DHT22;6667;52.634;9.226;2024-01-30T13:29:00;11.30;99.90
13205;DHT22;6667;52.634;9.226;2024-01-30T13:31:26;11.30;99.90
13205;DHT22;6667;52.634;9.226;2024-01-30T13:33:53;11.30;99.90
13205;DHT22;6667;52.634;9.226;2024-01-30T13:36:20;11.30;99.90
13205;DHT22;6667;52.634;9.226;2024-01-30T13:38:47;11.20;99.90
13205;DHT22;6667;52.634;9.226;2024-01-30T13:41:14;11.20;99.90
13205;DHT22;6667;52.634;9.226;2024-01-30T13:43:43;11.20;99.90
13205;DHT22;6667;52.634;9.226;2024-01-30T13:46:11;11.20;99.90
13205;DHT22;6667;52.634;9.226;2024-01-30T13:48:38;11.20;99.90
13205;DHT22;6667;52.634;9.226;2024-01-30T13:51:04;11.20;99.90
13205;DHT22;6667;52.634;9.226;2024-01-30T13:53:31;11.20;99.90
13205;DHT22;6667;52.634;9.226;2024-01-30T13:55:58;11.20;99.90
13205;DHT22;6667;52.634;9.226;2024-01-30T13:58:25;11.10;99.90
13205;DHT22;6667;52.634;9.226;2024-01-30T14:00:51;11.20;99.90
13205;DHT22;6667;52.634;9.226;2024-01-30T14:03:19;11.20;99.90
13205;DHT22;6667;52.634;9.226;2024-01-30T14:05:46;11.20;99.90
13205;DHT22;6667;52.634;9.226;2024-01-30T14:08:12;11.10;99.90
13205;DHT22;6667;52.634;9.226;2024-01-30T14:10:39;11.20;99.90
13205;DHT22;6667;52.634;9.226;2024-01-30T14:13:06;11.10;99.90
13205;DHT22;6667;52.634;9.226;2024-01-30T14:15:32;11.10;99.90
13205;DHT22;6667;52.634;9.226;2024-01-30T14:17:59;11.10;99.90
13205;DHT22;6667;52.634;9.226;2024-01-30T14:20:27;11.10;99.90
13205;DHT22;6667;52.634;9.226;2024-01-30T14:22:54;11.10;99.90
13205;DHT22;6667;52.634;9.226;2024-01-30T14:25:21;11.10;99.90
13205;DHT22;6667;52.634;9.226;2024-01-30T14:27:47;11.10;99.90
13205;DHT22;6667;52.634;9.226;2024-01-30T14:30:14;11.10;99.90
13205;DHT22;6667;52.634;9.226;2024-01-30T14:32:40;11.20;99.90
13205;DHT22;6667;52.634;9.226;2024-01-30T14:35:09;11.10;99.90
13205;DHT22;6667;52.634;9.226;2024-01-30T14:37:38;11.10;99.90
13205;DHT22;6667;52.634;9.226;2024-01-30T14:40:06;11.10;99.90
13205;DHT22;6667;52.634;9.226;2024-01-30T14:42:33;11.10;99.90
13205;DHT22;6667;52.634;9.226;2024-01-30T14:45:01;11.10;99.90
13205;DHT22;6667;52.634;9.226;2024-01-30T14:47:28;11.10;99.90
13205;DHT22;6667;52.634;9.226;2024-01-30T14:49:56;11.10;99.90
13205;DHT22;6667;52.634;9.226;2024-01-30T14:52:23;11.10;99.90
13205;DHT22;6667;52.634;9.226;2024-01-30T14:54:51;11.10;99.90
13205;DHT22;6667;52.634;9.226;2024-01-30T14:57:17;11.10;99.90
13205;DHT22;6667;52.634;9.226;2024-01-30T14:59:44;11.10;99.90
13205;DHT22;6667;52.634;9.226;2024-01-30T15:02:11;11.10;99.90
13205;DHT22;6667;52.634;9.226;2024-01-30T15:04:37;11.10;99.90
13205;DHT22;6667;52.634;9.226;2024-01-30T15:07:04;11.10;99.90
13205;DHT22;6667;52.634;9.226;2024-01-30T15:09:31;11.10;99.90
13205;DHT22;6667;52.634;9.226;2024-01-30T15:11:59;11.20;99.90
13205;DHT22;6667;52.634;9.226;2024-01-30T15:14:25;11.10;99.90
13205;DHT22;6667;52.634;9.226;2024-01-30T15:16:52;11.10;99.90
13205;DHT22;6667;52.634;9.226;2024-01-30T15:19:19;11.10;99.90
13205;DHT22;6667;52.634;9.226;2024-01-30T15:21:45;11.10;99.90
13205;DHT22;6667;52.634;9.226;2024-01-30T15:24:12;11.10;99.90
13205;DHT22;6667;52.634;9.226;2024-01-30T15:26:41;11.10;99.90
13205;DHT22;6667;52.634;9.226;2024-01-30T15:29:09;11.10;99.90
13205;DHT22;6667;52.634;9.226;2024-01-30T15:31:35;11.10;99.90
13205;DHT22;6667;52.634;9.226;2024-01-30T15:34:02;11.00;99.90
13205;DHT22;6667;52.634;9.226;2024-01-30T15:36:29;11.00;99.90
13205;DHT22;6667;52.634;9.226;2024-01-30T15:38:55;11.00;99.90
13205;DHT22;6667;52.634;9.226;2024-01-30T15:41:22;11.10;99.90
13205;DHT22;6667;52.634;9.226;2024-01-30T15:43:49;11.10;99.90
13205;DHT22;6667;52.634;9.226;2024-01-30T15:46:18;11.10;99.90
13205;DHT22;6667;52.634;9.226;2024-01-30T15:48:44;11.00;99.90
13205;DHT22;6667;52.634;9.226;2024-01-30T15:51:12;11.10;99.90
13205;DHT22;6667;52.634;9.226;2024-01-30T15:53:39;11.00;99.90
13205;DHT22;6667;52.634;9.226;2024-01-30T15:56:06;11.00;99.90
13205;DHT22;6667;52.634;9.226;2024-01-30T15:58:33;11.00;99.90